Portada
METAR-TAF:

METAR-TAF

Aeropuertos :

Tivat, Montenegro

latitud: 42-24N, longitud: 018-44E, altitud: 5 m

Observación

El informe se hizo hace 12 minutos, a las 13:30 UTC
Viento 4 kt del norte-noreste, variando entre noroeste y este
Temperatura 9°C
Humedad 37%
Presión 1011 hPa
Visibilidad 10 km o más
Nubes dispersas a una altura de 5300 ft
Cielo nuboso a una altura de 8300 ft

METAR: LYTV 011330Z 03004KT 310V090 9999 SCT053 BKN083 09/M05 Q1011 NOSIG

Hora: 15:42 (13:42 UTC)

Pronóstico

El informe se hizo hace 2 horas y 42 minutos, a las 11:00 UTC
Pronóstico válido del 01 a las 12 UTC al 02 a las 12 UTC
Viento 9 kt del norte
Visibilidad 10 km o más
Nubes dispersas a una altura de 5000 ft
Cielo nuboso a una altura de 8300 ft
Probabilidad 40% :
Temporalmente
del 01 a las 12 UTC al 01 a las 22 UTC
Viento 15 kt del norte-noreste con ráfagas de 25 kt

TAF: LYTV 011100Z 0112/0212 01009KT 9999 SCT050 BKN083 TX08/0112Z TN01/0203Z PROB40 TEMPO 0112/0122 02015G25KT

Observaciones y pronósticos meteorológicos de más de 4000 aeropuertos (mensajes METAR y TAF).

Los puntos amarillos y rojos representan las estaciones disponibles.

Ponga el ratón en el punto deseado para ver el nombre de la estación.

Haga clic para ver las observaciones y los pronósticos meteorológicos.

Para cambiar el mapa : haga clic en los botones verdes con una cruz de color negro para hacer un zoom, en el botón verde con un guión para alejar o en las flechas verdes para mapas adyacentes.


METAR-TAF: